sensor_id;sensor_type;location;lat;lon;timestamp;temperature;humidity
6948;DHT22;3513;47.664;9.162;2023-04-07T00:00:29;7.50;92.50
6948;DHT22;3513;47.664;9.162;2023-04-07T00:02:54;7.50;92.50
6948;DHT22;3513;47.664;9.162;2023-04-07T00:05:21;7.50;92.60
6948;DHT22;3513;47.664;9.162;2023-04-07T00:07:47;7.50;92.50
6948;DHT22;3513;47.664;9.162;2023-04-07T00:10:13;7.50;92.30
6948;DHT22;3513;47.664;9.162;2023-04-07T00:12:38;7.50;92.30
6948;DHT22;3513;47.664;9.162;2023-04-07T00:15:04;7.50;92.30
6948;DHT22;3513;47.664;9.162;2023-04-07T00:17:30;7.50;92.20
6948;DHT22;3513;47.664;9.162;2023-04-07T00:19:55;7.50;92.10
6948;DHT22;3513;47.664;9.162;2023-04-07T00:22:21;7.50;92.00
6948;DHT22;3513;47.664;9.162;2023-04-07T00:24:47;7.50;92.10
6948;DHT22;3513;47.664;9.162;2023-04-07T00:27:13;7.50;92.30
6948;DHT22;3513;47.664;9.162;2023-04-07T00:29:38;7.50;92.50
6948;DHT22;3513;47.664;9.162;2023-04-07T00:32:04;7.60;92.70
6948;DHT22;3513;47.664;9.162;2023-04-07T00:34:30;7.60;92.80
6948;DHT22;3513;47.664;9.162;2023-04-07T00:36:55;7.60;92.70
6948;DHT22;3513;47.664;9.162;2023-04-07T00:39:21;7.40;93.10
6948;DHT22;3513;47.664;9.162;2023-04-07T00:41:47;7.30;93.20
6948;DHT22;3513;47.664;9.162;2023-04-07T00:44:13;7.20;93.40
6948;DHT22;3513;47.664;9.162;2023-04-07T00:46:39;7.10;93.70
6948;DHT22;3513;47.664;9.162;2023-04-07T00:49:05;7.10;93.90
6948;DHT22;3513;47.664;9.162;2023-04-07T00:51:31;7.10;94.00
6948;DHT22;3513;47.664;9.162;2023-04-07T00:53:57;7.10;94.10
6948;DHT22;3513;47.664;9.162;2023-04-07T00:56:23;7.00;94.30
6948;DHT22;3513;47.664;9.162;2023-04-07T00:58:49;7.10;94.50
6948;DHT22;3513;47.664;9.162;2023-04-07T01:01:21;7.10;94.70
6948;DHT22;3513;47.664;9.162;2023-04-07T01:04:01;7.10;94.70
6948;DHT22;3513;47.664;9.162;2023-04-07T01:06:32;7.20;95.20
6948;DHT22;3513;47.664;9.162;2023-04-07T01:09:24;7.10;95.50
6948;DHT22;3513;47.664;9.162;2023-04-07T01:12:21;7.10;95.70
6948;DHT22;3513;47.664;9.162;2023-04-07T01:14:57;7.10;95.80
6948;DHT22;3513;47.664;9.162;2023-04-07T01:17:24;7.10;96.10
6948;DHT22;3513;47.664;9.162;2023-04-07T01:20:04;7.10;96.30
6948;DHT22;3513;47.664;9.162;2023-04-07T01:22:39;7.10;96.50
6948;DHT22;3513;47.664;9.162;2023-04-07T01:30:18;7.10;97.20
6948;DHT22;3513;47.664;9.162;2023-04-07T01:32:49;7.10;97.10
6948;DHT22;3513;47.664;9.162;2023-04-07T01:35:17;7.10;97.30
6948;DHT22;3513;47.664;9.162;2023-04-07T01:37:44;7.00;97.40
6948;DHT22;3513;47.664;9.162;2023-04-07T01:40:13;7.20;97.70
6948;DHT22;3513;47.664;9.162;2023-04-07T01:42:39;7.10;97.70
6948;DHT22;3513;47.664;9.162;2023-04-07T01:45:06;7.10;97.70
6948;DHT22;3513;47.664;9.162;2023-04-07T01:47:34;7.10;97.50
6948;DHT22;3513;47.664;9.162;2023-04-07T01:50:02;7.10;97.40
6948;DHT22;3513;47.664;9.162;2023-04-07T01:52:34;7.20;97.30
6948;DHT22;3513;47.664;9.162;2023-04-07T01:55:01;7.20;96.90
6948;DHT22;3513;47.664;9.162;2023-04-07T01:57:27;7.20;96.70
6948;DHT22;3513;47.664;9.162;2023-04-07T01:59:53;7.20;96.60
6948;DHT22;3513;47.664;9.162;2023-04-07T02:02:18;7.20;96.50
6948;DHT22;3513;47.664;9.162;2023-04-07T02:04:55;7.20;96.20
6948;DHT22;3513;47.664;9.162;2023-04-07T02:07:30;7.20;96.00
6948;DHT22;3513;47.664;9.162;2023-04-07T02:09:59;7.20;95.70
6948;DHT22;3513;47.664;9.162;2023-04-07T02:12:28;7.20;95.50
6948;DHT22;3513;47.664;9.162;2023-04-07T02:14:55;7.20;95.40
6948;DHT22;3513;47.664;9.162;2023-04-07T02:17:22;7.20;95.20
6948;DHT22;3513;47.664;9.162;2023-04-07T02:19:50;7.20;95.00
6948;DHT22;3513;47.664;9.162;2023-04-07T02:22:17;7.20;94.90
6948;DHT22;3513;47.664;9.162;2023-04-07T02:24:43;7.20;94.70
6948;DHT22;3513;47.664;9.162;2023-04-07T02:27:09;7.20;94.60
6948;DHT22;3513;47.664;9.162;2023-04-07T02:29:34;7.20;94.40
6948;DHT22;3513;47.664;9.162;2023-04-07T02:32:00;7.20;94.30
6948;DHT22;3513;47.664;9.162;2023-04-07T02:34:25;7.20;94.20
6948;DHT22;3513;47.664;9.162;2023-04-07T02:36:51;7.20;94.20
6948;DHT22;3513;47.664;9.162;2023-04-07T02:39:17;7.10;94.10
6948;DHT22;3513;47.664;9.162;2023-04-07T02:41:42;7.10;94.00
6948;DHT22;3513;47.664;9.162;2023-04-07T02:44:08;7.10;94.00
6948;DHT22;3513;47.664;9.162;2023-04-07T02:46:34;7.10;94.00
6948;DHT22;3513;47.664;9.162;2023-04-07T02:48:59;7.10;94.00
6948;DHT22;3513;47.664;9.162;2023-04-07T02:51:25;7.10;94.10
6948;DHT22;3513;47.664;9.162;2023-04-07T02:53:51;7.10;94.10
6948;DHT22;3513;47.664;9.162;2023-04-07T02:56:17;7.10;94.00
6948;DHT22;3513;47.664;9.162;2023-04-07T02:58:42;7.10;94.10
6948;DHT22;3513;47.664;9.162;2023-04-07T03:01:08;7.10;94.30
6948;DHT22;3513;47.664;9.162;2023-04-07T03:03:33;7.00;94.30
6948;DHT22;3513;47.664;9.162;2023-04-07T03:05:59;7.10;94.50
6948;DHT22;3513;47.664;9.162;2023-04-07T03:08:25;7.00;94.60
6948;DHT22;3513;47.664;9.162;2023-04-07T03:10:51;7.00;94.60
6948;DHT22;3513;47.664;9.162;2023-04-07T03:13:17;7.00;94.70
6948;DHT22;3513;47.664;9.162;2023-04-07T03:15:43;7.00;94.80
6948;DHT22;3513;47.664;9.162;2023-04-07T03:18:09;7.00;95.00
6948;DHT22;3513;47.664;9.162;2023-04-07T03:20:36;7.00;95.20
6948;DHT22;3513;47.664;9.162;2023-04-07T03:23:02;7.00;95.20
6948;DHT22;3513;47.664;9.162;2023-04-07T03:25:28;7.00;95.30
6948;DHT22;3513;47.664;9.162;2023-04-07T03:27:53;7.00;95.40
6948;DHT22;3513;47.664;9.162;2023-04-07T03:30:19;7.00;95.60
6948;DHT22;3513;47.664;9.162;2023-04-07T03:32:45;7.00;95.60
6948;DHT22;3513;47.664;9.162;2023-04-07T03:35:10;7.00;95.70
6948;DHT22;3513;47.664;9.162;2023-04-07T03:37:36;7.00;95.80
6948;DHT22;3513;47.664;9.162;2023-04-07T03:40:02;7.00;96.20
6948;DHT22;3513;47.664;9.162;2023-04-07T03:42:27;7.00;96.40
6948;DHT22;3513;47.664;9.162;2023-04-07T03:44:53;7.00;96.00
6948;DHT22;3513;47.664;9.162;2023-04-07T03:47:19;7.00;95.80
6948;DHT22;3513;47.664;9.162;2023-04-07T03:49:44;6.80;95.90
6948;DHT22;3513;47.664;9.162;2023-04-07T03:52:10;6.70;96.00
6948;DHT22;3513;47.664;9.162;2023-04-07T03:54:36;6.60;96.40
6948;DHT22;3513;47.664;9.162;2023-04-07T03:57:01;6.40;96.70
6948;DHT22;3513;47.664;9.162;2023-04-07T03:59:27;6.40;97.00
6948;DHT22;3513;47.664;9.162;2023-04-07T04:01:53;6.30;97.20
6948;DHT22;3513;47.664;9.162;2023-04-07T04:04:18;6.30;97.50
6948;DHT22;3513;47.664;9.162;2023-04-07T04:06:44;6.30;97.90
6948;DHT22;3513;47.664;9.162;2023-04-07T04:09:10;6.20;98.20
6948;DHT22;3513;47.664;9.162;2023-04-07T04:11:35;6.20;98.40
6948;DHT22;3513;47.664;9.162;2023-04-07T04:14:01;6.10;98.50
6948;DHT22;3513;47.664;9.162;2023-04-07T04:16:27;6.00;98.60
6948;DHT22;3513;47.664;9.162;2023-04-07T04:18:52;5.90;98.80
6948;DHT22;3513;47.664;9.162;2023-04-07T04:21:18;5.90;99.10
6948;DHT22;3513;47.664;9.162;2023-04-07T04:23:44;5.90;99.30
6948;DHT22;3513;47.664;9.162;2023-04-07T04:26:09;5.90;99.40
6948;DHT22;3513;47.664;9.162;2023-04-07T04:28:35;5.90;99.40
6948;DHT22;3513;47.664;9.162;2023-04-07T04:31:01;5.90;99.20
6948;DHT22;3513;47.664;9.162;2023-04-07T04:33:26;5.80;99.20
6948;DHT22;3513;47.664;9.162;2023-04-07T04:35:52;5.80;99.30
6948;DHT22;3513;47.664;9.162;2023-04-07T04:38:18;5.80;99.40
6948;DHT22;3513;47.664;9.162;2023-04-07T04:40:43;5.80;99.60
6948;DHT22;3513;47.664;9.162;2023-04-07T04:43:09;5.80;99.60
6948;DHT22;3513;47.664;9.162;2023-04-07T04:45:34;5.80;99.60
6948;DHT22;3513;47.664;9.162;2023-04-07T04:48:00;5.80;99.60
6948;DHT22;3513;47.664;9.162;2023-04-07T04:50:26;5.80;99.60
6948;DHT22;3513;47.664;9.162;2023-04-07T04:52:51;5.80;99.60
6948;DHT22;3513;47.664;9.162;2023-04-07T04:55:17;5.90;99.60
6948;DHT22;3513;47.664;9.162;2023-04-07T04:57:43;5.90;99.70
6948;DHT22;3513;47.664;9.162;2023-04-07T05:00:08;6.00;99.70
6948;DHT22;3513;47.664;9.162;2023-04-07T05:02:35;6.00;99.10
6948;DHT22;3513;47.664;9.162;2023-04-07T05:05:01;6.00;98.40
6948;DHT22;3513;47.664;9.162;2023-04-07T05:07:27;6.10;97.50
6948;DHT22;3513;47.664;9.162;2023-04-07T05:09:52;6.00;96.60
6948;DHT22;3513;47.664;9.162;2023-04-07T05:12:18;5.90;96.40
6948;DHT22;3513;47.664;9.162;2023-04-07T05:14:44;5.90;95.60
6948;DHT22;3513;47.664;9.162;2023-04-07T05:17:09;5.80;95.80
6948;DHT22;3513;47.664;9.162;2023-04-07T05:19:35;5.70;96.20
6948;DHT22;3513;47.664;9.162;2023-04-07T05:22:01;5.70;96.60
6948;DHT22;3513;47.664;9.162;2023-04-07T05:24:28;5.60;97.00
6948;DHT22;3513;47.664;9.162;2023-04-07T05:26:54;5.60;97.00
6948;DHT22;3513;47.664;9.162;2023-04-07T05:29:20;5.70;97.00
6948;DHT22;3513;47.664;9.162;2023-04-07T05:31:46;5.70;97.10
6948;DHT22;3513;47.664;9.162;2023-04-07T05:34:12;5.80;97.00
6948;DHT22;3513;47.664;9.162;2023-04-07T05:36:37;5.80;97.00
6948;DHT22;3513;47.664;9.162;2023-04-07T05:39:03;5.90;97.10
6948;DHT22;3513;47.664;9.162;2023-04-07T05:41:28;6.00;97.00
6948;DHT22;3513;47.664;9.162;2023-04-07T05:43:54;6.00;96.80
6948;DHT22;3513;47.664;9.162;2023-04-07T05:46:20;6.10;96.40
6948;DHT22;3513;47.664;9.162;2023-04-07T05:48:47;6.10;96.10
6948;DHT22;3513;47.664;9.162;2023-04-07T05:51:12;6.20;96.00
6948;DHT22;3513;47.664;9.162;2023-04-07T05:53:38;6.30;96.10
6948;DHT22;3513;47.664;9.162;2023-04-07T05:56:03;6.40;96.40
6948;DHT22;3513;47.664;9.162;2023-04-07T05:58:29;6.40;96.50
6948;DHT22;3513;47.664;9.162;2023-04-07T06:00:55;6.40;96.70
6948;DHT22;3513;47.664;9.162;2023-04-07T06:03:20;6.40;96.60
6948;DHT22;3513;47.664;9.162;2023-04-07T06:05:46;6.40;96.80
6948;DHT22;3513;47.664;9.162;2023-04-07T06:08:12;6.40;97.00
6948;DHT22;3513;47.664;9.162;2023-04-07T06:10:38;6.50;97.10
6948;DHT22;3513;47.664;9.162;2023-04-07T06:13:05;6.60;96.90
6948;DHT22;3513;47.664;9.162;2023-04-07T06:15:31;6.70;97.00
6948;DHT22;3513;47.664;9.162;2023-04-07T06:17:57;6.80;96.60
6948;DHT22;3513;47.664;9.162;2023-04-07T06:20:23;7.00;96.10
6948;DHT22;3513;47.664;9.162;2023-04-07T06:22:48;7.20;95.70
6948;DHT22;3513;47.664;9.162;2023-04-07T06:25:14;7.30;94.70
6948;DHT22;3513;47.664;9.162;2023-04-07T06:27:40;7.50;94.90
6948;DHT22;3513;47.664;9.162;2023-04-07T06:30:06;7.60;94.90
6948;DHT22;3513;47.664;9.162;2023-04-07T06:32:32;7.60;94.80
6948;DHT22;3513;47.664;9.162;2023-04-07T06:34:58;7.80;95.10
6948;DHT22;3513;47.664;9.162;2023-04-07T06:37:23;7.80;95.00
6948;DHT22;3513;47.664;9.162;2023-04-07T06:39:50;7.80;94.60
6948;DHT22;3513;47.664;9.162;2023-04-07T06:42:16;7.80;94.10
6948;DHT22;3513;47.664;9.162;2023-04-07T06:44:41;7.80;94.20
6948;DHT22;3513;47.664;9.162;2023-04-07T06:47:08;7.90;94.50
6948;DHT22;3513;47.664;9.162;2023-04-07T06:49:33;7.90;94.80
6948;DHT22;3513;47.664;9.162;2023-04-07T06:51:59;8.00;94.80
6948;DHT22;3513;47.664;9.162;2023-04-07T06:54:25;8.10;94.70
6948;DHT22;3513;47.664;9.162;2023-04-07T06:56:50;8.10;94.00
6948;DHT22;3513;47.664;9.162;2023-04-07T06:59:16;8.20;93.90
6948;DHT22;3513;47.664;9.162;2023-04-07T07:01:42;8.20;93.90
6948;DHT22;3513;47.664;9.162;2023-04-07T07:04:08;8.40;94.10
6948;DHT22;3513;47.664;9.162;2023-04-07T07:06:33;8.50;94.30
6948;DHT22;3513;47.664;9.162;2023-04-07T07:08:59;8.70;94.00
6948;DHT22;3513;47.664;9.162;2023-04-07T07:11:25;8.90;93.00
6948;DHT22;3513;47.664;9.162;2023-04-07T07:13:51;9.10;92.50
6948;DHT22;3513;47.664;9.162;2023-04-07T07:16:17;9.20;91.80
6948;DHT22;3513;47.664;9.162;2023-04-07T07:18:42;9.40;91.30
6948;DHT22;3513;47.664;9.162;2023-04-07T07:21:08;9.50;90.80
6948;DHT22;3513;47.664;9.162;2023-04-07T07:23:33;9.60;90.60
6948;DHT22;3513;47.664;9.162;2023-04-07T07:25:59;9.70;90.10
6948;DHT22;3513;47.664;9.162;2023-04-07T07:28:25;9.70;90.00
6948;DHT22;3513;47.664;9.162;2023-04-07T07:30:51;9.70;88.60
6948;DHT22;3513;47.664;9.162;2023-04-07T07:33:16;9.80;88.70
6948;DHT22;3513;47.664;9.162;2023-04-07T07:35:42;9.90;87.50
6948;DHT22;3513;47.664;9.162;2023-04-07T07:38:07;10.00;85.00
6948;DHT22;3513;47.664;9.162;2023-04-07T07:40:33;10.00;84.30
6948;DHT22;3513;47.664;9.162;2023-04-07T07:42:59;10.00;83.70
6948;DHT22;3513;47.664;9.162;2023-04-07T07:45:25;10.00;83.80
6948;DHT22;3513;47.664;9.162;2023-04-07T07:47:51;10.10;84.50
6948;DHT22;3513;47.664;9.162;2023-04-07T07:50:16;10.20;84.10
6948;DHT22;3513;47.664;9.162;2023-04-07T07:52:42;10.30;83.20
6948;DHT22;3513;47.664;9.162;2023-04-07T07:55:08;10.30;82.30
6948;DHT22;3513;47.664;9.162;2023-04-07T07:57:34;10.50;81.50
6948;DHT22;3513;47.664;9.162;2023-04-07T08:00:00;10.50;80.60
6948;DHT22;3513;47.664;9.162;2023-04-07T08:02:26;10.60;79.60
6948;DHT22;3513;47.664;9.162;2023-04-07T08:04:56;10.60;78.30
6948;DHT22;3513;47.664;9.162;2023-04-07T08:07:22;10.70;77.90
6948;DHT22;3513;47.664;9.162;2023-04-07T08:09:47;10.80;76.10
6948;DHT22;3513;47.664;9.162;2023-04-07T08:12:14;10.80;75.60
6948;DHT22;3513;47.664;9.162;2023-04-07T08:14:39;10.90;75.70
6948;DHT22;3513;47.664;9.162;2023-04-07T08:17:05;11.00;74.80
6948;DHT22;3513;47.664;9.162;2023-04-07T08:19:31;11.00;72.40
6948;DHT22;3513;47.664;9.162;2023-04-07T08:21:56;11.00;73.20
6948;DHT22;3513;47.664;9.162;2023-04-07T08:24:22;11.10;72.80
6948;DHT22;3513;47.664;9.162;2023-04-07T08:26:47;11.20;72.70
6948;DHT22;3513;47.664;9.162;2023-04-07T08:29:14;11.30;73.00
6948;DHT22;3513;47.664;9.162;2023-04-07T08:31:39;11.40;72.50
6948;DHT22;3513;47.664;9.162;2023-04-07T08:34:05;11.60;70.00
6948;DHT22;3513;47.664;9.162;2023-04-07T08:36:31;11.60;70.20
6948;DHT22;3513;47.664;9.162;2023-04-07T08:38:57;11.70;70.10
6948;DHT22;3513;47.664;9.162;2023-04-07T08:41:37;11.90;70.40
6948;DHT22;3513;47.664;9.162;2023-04-07T08:44:03;12.10;69.50
6948;DHT22;3513;47.664;9.162;2023-04-07T08:46:29;12.20;68.80
6948;DHT22;3513;47.664;9.162;2023-04-07T08:48:56;12.20;67.80
6948;DHT22;3513;47.664;9.162;2023-04-07T08:51:27;12.20;66.70
6948;DHT22;3513;47.664;9.162;2023-04-07T08:56:26;12.30;66.70
6948;DHT22;3513;47.664;9.162;2023-04-07T08:58:52;12.20;66.30
6948;DHT22;3513;47.664;9.162;2023-04-07T09:01:19;12.30;65.20
6948;DHT22;3513;47.664;9.162;2023-04-07T09:03:45;12.30;64.50
6948;DHT22;3513;47.664;9.162;2023-04-07T09:06:13;12.20;63.90
6948;DHT22;3513;47.664;9.162;2023-04-07T09:08:39;12.10;63.20
6948;DHT22;3513;47.664;9.162;2023-04-07T09:11:05;11.90;62.50
6948;DHT22;3513;47.664;9.162;2023-04-07T09:13:30;11.90;63.20
6948;DHT22;3513;47.664;9.162;2023-04-07T09:15:57;11.90;64.00
6948;DHT22;3513;47.664;9.162;2023-04-07T09:18:23;11.80;65.10
6948;DHT22;3513;47.664;9.162;2023-04-07T09:21:03;11.80;65.00
6948;DHT22;3513;47.664;9.162;2023-04-07T09:25:55;11.40;69.00
6948;DHT22;3513;47.664;9.162;2023-04-07T09:28:24;11.30;73.00
6948;DHT22;3513;47.664;9.162;2023-04-07T09:30:53;10.90;75.40
6948;DHT22;3513;47.664;9.162;2023-04-07T09:33:27;10.60;75.90
6948;DHT22;3513;47.664;9.162;2023-04-07T09:35:53;10.50;76.50
6948;DHT22;3513;47.664;9.162;2023-04-07T09:38:18;10.50;75.30
6948;DHT22;3513;47.664;9.162;2023-04-07T09:40:44;10.40;76.60
6948;DHT22;3513;47.664;9.162;2023-04-07T09:43:19;10.50;76.10
6948;DHT22;3513;47.664;9.162;2023-04-07T09:45:44;10.50;74.20
6948;DHT22;3513;47.664;9.162;2023-04-07T09:48:20;10.50;74.20
6948;DHT22;3513;47.664;9.162;2023-04-07T09:50:46;10.50;74.70
6948;DHT22;3513;47.664;9.162;2023-04-07T09:53:16;10.60;74.30
6948;DHT22;3513;47.664;9.162;2023-04-07T09:55:44;10.60;74.70
6948;DHT22;3513;47.664;9.162;2023-04-07T09:58:12;10.50;75.20
6948;DHT22;3513;47.664;9.162;2023-04-07T10:00:39;10.50;74.20
6948;DHT22;3513;47.664;9.162;2023-04-07T10:03:06;10.50;73.80
6948;DHT22;3513;47.664;9.162;2023-04-07T10:05:33;10.50;72.40
6948;DHT22;3513;47.664;9.162;2023-04-07T10:08:00;10.50;72.10
6948;DHT22;3513;47.664;9.162;2023-04-07T10:10:27;10.60;71.50
6948;DHT22;3513;47.664;9.162;2023-04-07T10:12:53;10.70;72.20
6948;DHT22;3513;47.664;9.162;2023-04-07T10:15:19;10.80;71.40
6948;DHT22;3513;47.664;9.162;2023-04-07T10:17:46;11.00;70.50
6948;DHT22;3513;47.664;9.162;2023-04-07T10:20:15;11.20;69.80
6948;DHT22;3513;47.664;9.162;2023-04-07T10:22:42;11.20;69.10
6948;DHT22;3513;47.664;9.162;2023-04-07T10:25:11;11.40;69.00
6948;DHT22;3513;47.664;9.162;2023-04-07T10:27:42;11.40;68.60
6948;DHT22;3513;47.664;9.162;2023-04-07T10:30:20;11.40;69.80
6948;DHT22;3513;47.664;9.162;2023-04-07T10:32:51;11.40;68.10
6948;DHT22;3513;47.664;9.162;2023-04-07T10:35:19;11.40;69.40
6948;DHT22;3513;47.664;9.162;2023-04-07T10:38:09;11.60;69.20
6948;DHT22;3513;47.664;9.162;2023-04-07T10:40:36;11.70;69.00
6948;DHT22;3513;47.664;9.162;2023-04-07T10:43:04;11.90;66.50
6948;DHT22;3513;47.664;9.162;2023-04-07T10:48:16;12.30;56.80
6948;DHT22;3513;47.664;9.162;2023-04-07T10:50:44;12.40;55.20
6948;DHT22;3513;47.664;9.162;2023-04-07T10:53:14;12.50;56.30
6948;DHT22;3513;47.664;9.162;2023-04-07T10:55:44;12.60;55.60
6948;DHT22;3513;47.664;9.162;2023-04-07T10:58:25;12.70;55.60
6948;DHT22;3513;47.664;9.162;2023-04-07T11:03:22;12.80;54.80
6948;DHT22;3513;47.664;9.162;2023-04-07T11:05:49;12.90;54.00
6948;DHT22;3513;47.664;9.162;2023-04-07T11:08:14;12.80;52.50
6948;DHT22;3513;47.664;9.162;2023-04-07T11:10:46;12.70;53.00
6948;DHT22;3513;47.664;9.162;2023-04-07T11:13:12;12.80;54.00
6948;DHT22;3513;47.664;9.162;2023-04-07T11:15:38;12.70;53.10
6948;DHT22;3513;47.664;9.162;2023-04-07T11:18:17;12.70;53.60
6948;DHT22;3513;47.664;9.162;2023-04-07T11:20:45;12.40;55.10
6948;DHT22;3513;47.664;9.162;2023-04-07T11:23:12;12.60;56.00
6948;DHT22;3513;47.664;9.162;2023-04-07T11:25:38;12.60;56.50
6948;DHT22;3513;47.664;9.162;2023-04-07T11:28:09;12.70;57.30
6948;DHT22;3513;47.664;9.162;2023-04-07T11:30:35;12.80;57.50
6948;DHT22;3513;47.664;9.162;2023-04-07T11:33:02;12.90;57.90
6948;DHT22;3513;47.664;9.162;2023-04-07T11:35:27;12.90;57.60
6948;DHT22;3513;47.664;9.162;2023-04-07T11:37:59;13.00;57.70
6948;DHT22;3513;47.664;9.162;2023-04-07T11:40:34;13.00;59.00
6948;DHT22;3513;47.664;9.162;2023-04-07T11:43:02;12.90;59.20
6948;DHT22;3513;47.664;9.162;2023-04-07T11:45:28;12.80;59.60
6948;DHT22;3513;47.664;9.162;2023-04-07T11:47:53;12.90;61.60
6948;DHT22;3513;47.664;9.162;2023-04-07T11:50:38;12.80;60.90
6948;DHT22;3513;47.664;9.162;2023-04-07T11:53:04;12.80;63.40
6948;DHT22;3513;47.664;9.162;2023-04-07T11:55:30;12.80;63.60
6948;DHT22;3513;47.664;9.162;2023-04-07T11:58:04;12.80;62.70
6948;DHT22;3513;47.664;9.162;2023-04-07T12:00:30;12.80;63.80
6948;DHT22;3513;47.664;9.162;2023-04-07T12:02:56;12.80;62.30
6948;DHT22;3513;47.664;9.162;2023-04-07T12:05:22;12.90;60.90
6948;DHT22;3513;47.664;9.162;2023-04-07T12:07:53;12.90;61.70
6948;DHT22;3513;47.664;9.162;2023-04-07T12:10:21;12.90;62.90
6948;DHT22;3513;47.664;9.162;2023-04-07T12:12:47;12.80;62.40
6948;DHT22;3513;47.664;9.162;2023-04-07T12:15:13;12.90;62.50
6948;DHT22;3513;47.664;9.162;2023-04-07T12:17:46;12.90;61.70
6948;DHT22;3513;47.664;9.162;2023-04-07T12:20:13;12.90;61.50
6948;DHT22;3513;47.664;9.162;2023-04-07T12:22:39;12.90;61.30
6948;DHT22;3513;47.664;9.162;2023-04-07T12:25:05;13.00;62.10
6948;DHT22;3513;47.664;9.162;2023-04-07T12:27:31;13.00;61.20
6948;DHT22;3513;47.664;9.162;2023-04-07T12:29:57;13.00;62.70
6948;DHT22;3513;47.664;9.162;2023-04-07T12:32:22;12.90;63.00
6948;DHT22;3513;47.664;9.162;2023-04-07T12:34:48;12.90;62.70
6948;DHT22;3513;47.664;9.162;2023-04-07T12:37:13;12.90;62.30
6948;DHT22;3513;47.664;9.162;2023-04-07T12:39:39;13.00;61.70
6948;DHT22;3513;47.664;9.162;2023-04-07T12:42:04;13.10;61.80
6948;DHT22;3513;47.664;9.162;2023-04-07T12:44:31;13.20;61.50
6948;DHT22;3513;47.664;9.162;2023-04-07T12:46:57;13.20;62.30
6948;DHT22;3513;47.664;9.162;2023-04-07T12:49:22;13.00;63.20
6948;DHT22;3513;47.664;9.162;2023-04-07T12:51:48;12.80;64.70
6948;DHT22;3513;47.664;9.162;2023-04-07T12:54:15;12.60;65.80
6948;DHT22;3513;47.664;9.162;2023-04-07T12:56:40;12.50;67.00
6948;DHT22;3513;47.664;9.162;2023-04-07T12:59:06;12.40;68.40
6948;DHT22;3513;47.664;9.162;2023-04-07T13:01:33;12.30;70.00
6948;DHT22;3513;47.664;9.162;2023-04-07T13:03:59;12.20;71.50
6948;DHT22;3513;47.664;9.162;2023-04-07T13:06:26;12.30;71.40
6948;DHT22;3513;47.664;9.162;2023-04-07T13:08:51;12.40;71.80
6948;DHT22;3513;47.664;9.162;2023-04-07T13:11:17;12.60;71.70
6948;DHT22;3513;47.664;9.162;2023-04-07T13:13:43;12.70;72.10
6948;DHT22;3513;47.664;9.162;2023-04-07T13:16:08;12.90;70.10
6948;DHT22;3513;47.664;9.162;2023-04-07T13:18:34;12.70;70.10
6948;DHT22;3513;47.664;9.162;2023-04-07T13:21:01;12.50;71.20
6948;DHT22;3513;47.664;9.162;2023-04-07T13:23:26;12.50;71.20
6948;DHT22;3513;47.664;9.162;2023-04-07T13:25:52;12.70;71.50
6948;DHT22;3513;47.664;9.162;2023-04-07T13:28:17;12.50;70.90
6948;DHT22;3513;47.664;9.162;2023-04-07T13:30:45;12.40;70.80
6948;DHT22;3513;47.664;9.162;2023-04-07T13:33:11;12.40;71.90
6948;DHT22;3513;47.664;9.162;2023-04-07T13:35:37;12.30;72.00
6948;DHT22;3513;47.664;9.162;2023-04-07T13:38:03;12.30;73.10
6948;DHT22;3513;47.664;9.162;2023-04-07T13:40:29;12.30;71.70
6948;DHT22;3513;47.664;9.162;2023-04-07T13:42:55;12.30;71.40
6948;DHT22;3513;47.664;9.162;2023-04-07T13:45:22;12.40;72.00
6948;DHT22;3513;47.664;9.162;2023-04-07T13:47:47;12.40;70.50
6948;DHT22;3513;47.664;9.162;2023-04-07T13:50:13;12.40;70.90
6948;DHT22;3513;47.664;9.162;2023-04-07T13:52:38;12.50;70.00
6948;DHT22;3513;47.664;9.162;2023-04-07T13:55:05;12.50;69.70
6948;DHT22;3513;47.664;9.162;2023-04-07T13:57:30;12.50;69.60
6948;DHT22;3513;47.664;9.162;2023-04-07T13:59:56;12.60;69.00
6948;DHT22;3513;47.664;9.162;2023-04-07T14:02:22;12.60;68.50
6948;DHT22;3513;47.664;9.162;2023-04-07T14:04:49;12.30;69.00
6948;DHT22;3513;47.664;9.162;2023-04-07T14:07:14;12.20;70.30
6948;DHT22;3513;47.664;9.162;2023-04-07T14:09:40;12.20;70.10
6948;DHT22;3513;47.664;9.162;2023-04-07T14:12:07;12.60;71.00
6948;DHT22;3513;47.664;9.162;2023-04-07T14:14:33;13.00;69.30
6948;DHT22;3513;47.664;9.162;2023-04-07T14:17:02;13.30;67.20
6948;DHT22;3513;47.664;9.162;2023-04-07T14:19:28;13.40;67.40
6948;DHT22;3513;47.664;9.162;2023-04-07T14:21:54;13.50;65.30
6948;DHT22;3513;47.664;9.162;2023-04-07T14:24:20;13.50;63.10
6948;DHT22;3513;47.664;9.162;2023-04-07T14:26:46;13.30;63.60
6948;DHT22;3513;47.664;9.162;2023-04-07T14:29:12;13.50;63.60
6948;DHT22;3513;47.664;9.162;2023-04-07T14:31:38;13.50;62.70
6948;DHT22;3513;47.664;9.162;2023-04-07T14:34:04;13.90;62.20
6948;DHT22;3513;47.664;9.162;2023-04-07T14:36:31;14.40;61.50
6948;DHT22;3513;47.664;9.162;2023-04-07T14:38:57;14.70;59.80
6948;DHT22;3513;47.664;9.162;2023-04-07T14:41:25;14.70;59.10
6948;DHT22;3513;47.664;9.162;2023-04-07T14:43:51;14.40;59.20
6948;DHT22;3513;47.664;9.162;2023-04-07T14:46:23;14.70;60.90
6948;DHT22;3513;47.664;9.162;2023-04-07T14:48:50;15.30;57.70
6948;DHT22;3513;47.664;9.162;2023-04-07T14:51:19;15.20;57.40
6948;DHT22;3513;47.664;9.162;2023-04-07T14:53:45;15.20;56.60
6948;DHT22;3513;47.664;9.162;2023-04-07T14:56:12;15.30;58.30
6948;DHT22;3513;47.664;9.162;2023-04-07T14:58:38;15.50;57.20
6948;DHT22;3513;47.664;9.162;2023-04-07T15:01:05;15.80;55.30
6948;DHT22;3513;47.664;9.162;2023-04-07T15:03:31;15.50;55.00
6948;DHT22;3513;47.664;9.162;2023-04-07T15:05:59;15.30;54.80
6948;DHT22;3513;47.664;9.162;2023-04-07T15:08:24;15.10;55.20
6948;DHT22;3513;47.664;9.162;2023-04-07T15:10:50;14.60;56.00
6948;DHT22;3513;47.664;9.162;2023-04-07T15:13:15;14.30;57.80
6948;DHT22;3513;47.664;9.162;2023-04-07T15:15:41;14.30;57.50
6948;DHT22;3513;47.664;9.162;2023-04-07T15:18:07;14.20;57.90
6948;DHT22;3513;47.664;9.162;2023-04-07T15:20:32;14.60;58.20
6948;DHT22;3513;47.664;9.162;2023-04-07T15:22:58;15.50;57.40
6948;DHT22;3513;47.664;9.162;2023-04-07T15:25:26;16.00;55.50
6948;DHT22;3513;47.664;9.162;2023-04-07T15:27:52;16.20;55.60
6948;DHT22;3513;47.664;9.162;2023-04-07T15:30:17;16.00;53.90
6948;DHT22;3513;47.664;9.162;2023-04-07T15:32:59;15.30;55.50
6948;DHT22;3513;47.664;9.162;2023-04-07T15:35:27;14.40;57.80
6948;DHT22;3513;47.664;9.162;2023-04-07T15:37:52;13.80;59.40
6948;DHT22;3513;47.664;9.162;2023-04-07T15:40:18;13.60;61.30
6948;DHT22;3513;47.664;9.162;2023-04-07T15:42:43;13.30;62.30
6948;DHT22;3513;47.664;9.162;2023-04-07T15:45:09;13.00;63.70
6948;DHT22;3513;47.664;9.162;2023-04-07T15:47:35;12.80;65.90
6948;DHT22;3513;47.664;9.162;2023-04-07T15:52:27;12.30;66.30
6948;DHT22;3513;47.664;9.162;2023-04-07T15:54:52;12.30;67.00
6948;DHT22;3513;47.664;9.162;2023-04-07T15:57:18;12.30;66.40
6948;DHT22;3513;47.664;9.162;2023-04-07T15:59:45;12.10;66.20
6948;DHT22;3513;47.664;9.162;2023-04-07T16:02:11;11.90;67.00
6948;DHT22;3513;47.664;9.162;2023-04-07T16:04:38;11.80;67.10
6948;DHT22;3513;47.664;9.162;2023-04-07T16:07:04;12.10;68.40
6948;DHT22;3513;47.664;9.162;2023-04-07T16:09:30;11.70;68.40
6948;DHT22;3513;47.664;9.162;2023-04-07T16:11:55;11.60;69.50
6948;DHT22;3513;47.664;9.162;2023-04-07T16:14:21;11.40;69.80
6948;DHT22;3513;47.664;9.162;2023-04-07T16:16:46;11.20;71.50
6948;DHT22;3513;47.664;9.162;2023-04-07T16:19:12;11.10;72.60
6948;DHT22;3513;47.664;9.162;2023-04-07T16:21:38;11.00;73.40
6948;DHT22;3513;47.664;9.162;2023-04-07T16:24:04;10.90;73.70